createdAt,value
2018-09-15T00:02:09.340Z,99624.92
2018-09-15T00:04:37.944Z,99624.85
2018-09-15T00:07:07.071Z,99625.05
2018-09-15T00:09:36.609Z,99625.94
2018-09-15T00:12:05.084Z,99637.77
2018-09-15T00:14:33.990Z,99631.31
2018-09-15T00:17:02.566Z,99636.12
2018-09-15T00:19:31.082Z,99642.66
2018-09-15T00:21:59.569Z,99643.85
2018-09-15T00:24:28.043Z,99639.22
2018-09-15T00:26:56.647Z,99646.05
2018-09-15T00:29:25.146Z,99643.30
2018-09-15T00:31:54.829Z,99644.94
2018-09-15T00:34:23.360Z,99648.99
2018-09-15T00:36:52.687Z,99645.25
2018-09-15T00:39:21.192Z,99641.94
2018-09-15T00:41:50.233Z,99650.50
2018-09-15T00:44:18.692Z,99647.66
2018-09-15T00:46:47.876Z,99643.84
2018-09-15T00:49:17.105Z,99648.05
2018-09-15T00:51:45.667Z,99651.27
2018-09-15T00:54:14.312Z,99652.38
2018-09-15T00:56:43.569Z,99649.81
2018-09-15T00:59:14.874Z,99646.25
2018-09-15T01:01:43.408Z,99650.72
2018-09-15T01:04:11.887Z,99639.70
2018-09-15T01:06:40.416Z,99644.57
2018-09-15T01:09:09.839Z,99644.72
2018-09-15T01:11:38.489Z,99647.77
2018-09-15T01:14:07.416Z,99649.46
2018-09-15T01:16:37.404Z,99644.57
2018-09-15T01:19:06.137Z,99653.56
2018-09-15T01:21:35.007Z,99648.71
2018-09-15T01:24:03.533Z,99649.22
2018-09-15T01:26:32.039Z,99643.55
2018-09-15T01:29:00.574Z,99647.99
2018-09-15T01:31:29.594Z,99650.30
2018-09-15T01:33:58.055Z,99645.16
2018-09-15T01:36:26.540Z,99648.39
2018-09-15T01:38:56.288Z,99652.14
2018-09-15T01:41:24.798Z,99650.64
2018-09-15T01:43:53.415Z,99655.96
2018-09-15T01:46:22.033Z,99656.84
2018-09-15T01:48:50.616Z,99661.63
2018-09-15T01:51:20.655Z,99662.03
2018-09-15T01:53:49.273Z,99664.00
2018-09-15T01:56:17.735Z,99668.36
2018-09-15T01:58:46.823Z,99673.61
2018-09-15T02:01:15.320Z,99667.59
2018-09-15T02:03:43.783Z,99671.63
2018-09-15T02:06:12.273Z,99678.41
2018-09-15T02:08:40.734Z,99678.09
2018-09-15T02:11:09.219Z,99673.83
2018-09-15T02:13:37.647Z,99681.56
2018-09-15T02:16:06.282Z,99683.82
2018-09-15T02:18:34.816Z,99682.80
2018-09-15T02:21:06.476Z,99680.31
2018-09-15T02:23:35.077Z,99680.83
2018-09-15T02:26:03.553Z,99682.57
2018-09-15T02:28:32.065Z,99684.08
2018-09-15T02:31:00.554Z,99678.29
2018-09-15T02:33:29.004Z,99688.04
2018-09-15T02:35:57.538Z,99685.98
2018-09-15T02:38:26.532Z,99681.28
2018-09-15T02:40:55.044Z,99683.72
2018-09-15T02:43:23.580Z,99688.23
2018-09-15T02:45:52.041Z,99693.71
2018-09-15T02:48:20.554Z,99689.45
2018-09-15T02:50:49.136Z,99687.18
2018-09-15T02:53:17.574Z,99691.41
2018-09-15T02:55:46.058Z,99697.70
2018-09-15T02:58:14.531Z,99697.88
2018-09-15T03:00:43.077Z,99694.52
2018-09-15T03:03:11.584Z,99703.59
2018-09-15T03:05:40.089Z,99707.58
2018-09-15T03:08:08.592Z,99705.97
2018-09-15T03:10:37.799Z,99709.55
2018-09-15T03:13:06.865Z,99709.19
2018-09-15T03:15:35.511Z,99713.45
2018-09-15T03:18:04.025Z,99721.36
2018-09-15T03:20:32.615Z,99721.25
2018-09-15T03:23:01.130Z,99726.94
2018-09-15T03:25:29.663Z,99732.70
2018-09-15T03:27:58.215Z,99724.76
2018-09-15T03:30:26.755Z,99735.30
2018-09-15T03:32:55.808Z,99732.48
2018-09-15T03:35:24.499Z,99735.50
2018-09-15T03:37:53.020Z,99737.07
2018-09-15T03:40:21.668Z,99734.44
2018-09-15T03:42:50.237Z,99736.33
2018-09-15T03:45:18.668Z,99740.64
2018-09-15T03:47:47.166Z,99743.51
2018-09-15T03:50:15.681Z,99733.30
2018-09-15T03:52:44.269Z,99736.63
2018-09-15T03:55:12.720Z,99742.28
2018-09-15T03:57:41.203Z,99744.09
2018-09-15T04:00:10.361Z,99739.63
2018-09-15T04:02:38.902Z,99740.33
2018-09-15T04:05:07.414Z,99736.95
2018-09-15T04:09:05.043Z,99739.11
2018-09-15T04:11:33.528Z,99736.23
2018-09-15T04:14:02.525Z,99737.11
2018-09-15T04:16:31.458Z,99739.88
2018-09-15T04:18:59.970Z,99740.47
2018-09-15T04:21:28.525Z,99741.33
2018-09-15T04:23:57.058Z,99746.25
2018-09-15T04:26:26.027Z,99745.31
2018-09-15T04:28:55.271Z,99744.34
2018-09-15T04:31:23.691Z,99743.98
2018-09-15T04:33:52.836Z,99747.95
2018-09-15T04:36:21.335Z,99756.77
2018-09-15T04:38:51.367Z,99758.09
2018-09-15T04:41:19.870Z,99760.38
2018-09-15T04:43:48.392Z,99769.43
2018-09-15T04:46:16.798Z,99770.41
2018-09-15T04:48:45.368Z,99769.86
2018-09-15T04:51:13.856Z,99777.13
2018-09-15T04:53:42.327Z,99781.97
2018-09-15T04:56:11.501Z,99780.64
2018-09-15T04:58:40.142Z,99786.53
2018-09-15T05:01:08.668Z,99793.17
2018-09-15T05:03:37.253Z,99794.64
2018-09-15T05:06:05.755Z,99796.69
2018-09-15T05:08:34.895Z,99804.15
2018-09-15T05:11:03.430Z,99811.52
2018-09-15T05:13:31.920Z,99817.14
2018-09-15T05:16:01.149Z,99823.17
2018-09-15T05:18:29.633Z,99825.24
2018-09-15T05:20:58.077Z,99831.95
2018-09-15T05:23:26.558Z,99835.93
2018-09-15T05:25:55.049Z,99837.80
2018-09-15T05:28:23.529Z,99835.17
2018-09-15T05:30:51.976Z,99835.30
2018-09-15T05:33:20.493Z,99841.08
2018-09-15T05:35:49.026Z,99838.47
2018-09-15T05:38:17.563Z,99836.70
2018-09-15T05:40:46.118Z,99842.62
2018-09-15T05:43:16.056Z,99837.42
2018-09-15T05:45:45.206Z,99845.52
2018-09-15T05:48:13.915Z,99838.64
2018-09-15T05:50:42.635Z,99848.05
2018-09-15T05:53:11.147Z,99854.45
2018-09-15T05:55:39.630Z,99855.97
2018-09-15T05:58:08.535Z,99855.16
2018-09-15T06:00:37.189Z,99856.09
2018-09-15T06:03:05.580Z,99853.34
2018-09-15T06:05:34.036Z,99858.78
2018-09-15T06:08:02.596Z,99858.71
2018-09-15T06:10:31.066Z,99868.34
2018-09-15T06:12:59.580Z,99871.46
2018-09-15T06:15:28.070Z,99867.34
2018-09-15T06:17:56.608Z,99862.27
2018-09-15T06:20:26.662Z,99856.31
2018-09-15T06:22:55.245Z,99860.80
2018-09-15T06:25:23.717Z,99861.96
2018-09-15T06:27:52.280Z,99860.09
2018-09-15T06:30:21.100Z,99861.10
2018-09-15T06:32:49.731Z,99848.49
2018-09-15T06:35:18.308Z,99861.64
2018-09-15T06:37:46.922Z,99873.47
2018-09-15T06:40:15.404Z,99866.23
2018-09-15T06:42:43.927Z,99859.65
2018-09-15T06:45:12.715Z,99859.39
2018-09-15T06:47:41.242Z,99872.94
2018-09-15T06:50:09.799Z,99866.37
2018-09-15T06:52:38.328Z,99868.85
2018-09-15T06:55:06.884Z,99869.55
2018-09-15T06:57:35.418Z,99869.06
2018-09-15T07:00:04.234Z,99870.92
2018-09-15T07:02:32.728Z,99875.58
2018-09-15T07:05:01.208Z,99875.20
2018-09-15T07:07:29.665Z,99879.63
2018-09-15T07:09:58.981Z,99883.73
2018-09-15T07:12:27.442Z,99877.28
2018-09-15T07:14:55.926Z,99875.88
2018-09-15T07:17:24.390Z,99885.33
2018-09-15T07:19:53.074Z,99875.02
2018-09-15T07:22:21.555Z,99878.77
2018-09-15T07:24:50.739Z,99869.47
2018-09-15T07:27:19.212Z,99871.42
2018-09-15T07:29:47.666Z,99879.91
2018-09-15T07:32:16.230Z,99891.05
2018-09-15T07:34:44.756Z,99892.80
2018-09-15T07:37:13.247Z,99896.36
2018-09-15T07:39:43.074Z,99905.30
2018-09-15T07:42:11.575Z,99904.95
2018-09-15T07:44:40.147Z,99910.48
2018-09-15T07:47:08.606Z,99903.02
2018-09-15T07:49:37.126Z,99905.71
2018-09-15T07:52:05.619Z,99904.85
2018-09-15T07:54:34.157Z,99908.18
2018-09-15T07:57:03.149Z,99905.52
2018-09-15T07:59:31.740Z,99898.30
2018-09-15T08:02:00.323Z,99899.48
2018-09-15T08:04:28.839Z,99901.36
2018-09-15T08:06:57.960Z,99906.53
2018-09-15T08:09:26.519Z,99901.56
2018-09-15T08:11:55.146Z,99904.73
2018-09-15T08:14:23.839Z,99904.22
2018-09-15T08:16:52.367Z,99901.03
2018-09-15T08:19:20.943Z,99900.08
2018-09-15T08:21:50.875Z,99900.18
2018-09-15T08:24:19.438Z,99898.49
2018-09-15T08:26:48.550Z,99899.89
2018-09-15T08:29:17.173Z,99907.72
2018-09-15T08:31:46.188Z,99906.48
2018-09-15T08:34:15.719Z,99910.57
2018-09-15T08:36:44.359Z,99912.41
2018-09-15T08:39:12.980Z,99912.07
2018-09-15T08:41:41.577Z,99912.88
2018-09-15T08:44:11.308Z,99914.34
2018-09-15T08:46:41.537Z,99921.22
2018-09-15T08:49:10.268Z,99921.13
2018-09-15T08:51:38.910Z,99924.39
2018-09-15T08:54:07.478Z,99922.30
2018-09-15T08:56:36.008Z,99923.49
2018-09-15T08:59:04.547Z,99925.32
2018-09-15T09:01:34.092Z,99922.52
2018-09-15T09:04:02.939Z,99922.59
2018-09-15T09:06:31.624Z,99923.24
2018-09-15T09:09:00.102Z,99926.43
2018-09-15T09:11:28.616Z,99928.67
2018-09-15T09:13:57.184Z,99938.13
2018-09-15T09:16:26.717Z,99928.58
2018-09-15T09:18:55.360Z,99933.90
2018-09-15T09:21:23.916Z,99935.23
2018-09-15T09:23:52.523Z,99923.06
2018-09-15T09:26:21.251Z,99926.09
2018-09-15T09:28:49.853Z,99917.30
2018-09-15T09:31:18.433Z,99930.11
2018-09-15T09:33:46.908Z,99924.30
2018-09-15T09:36:15.465Z,99929.94
2018-09-15T09:38:44.104Z,99923.28
2018-09-15T09:41:12.660Z,99922.36
2018-09-15T09:43:41.224Z,99924.45
2018-09-15T09:46:10.308Z,99921.95
2018-09-15T09:48:38.887Z,99918.66
2018-09-15T09:51:07.988Z,99914.12
2018-09-15T09:53:37.095Z,99918.57
2018-09-15T09:56:05.673Z,99915.94
2018-09-15T09:58:35.730Z,99921.91
2018-09-15T10:01:09.517Z,99921.98
2018-09-15T10:03:37.964Z,99916.10
2018-09-15T10:06:06.555Z,99908.22
2018-09-15T10:08:36.239Z,99918.59
2018-09-15T10:11:05.748Z,99914.51
2018-09-15T10:13:34.252Z,99905.84
2018-09-15T10:16:02.941Z,99906.59
2018-09-15T10:18:31.828Z,99905.34
2018-09-15T10:21:00.516Z,99901.35
2018-09-15T10:23:29.684Z,99899.14
2018-09-15T10:25:58.283Z,99905.61
2018-09-15T10:28:26.827Z,99910.76
2018-09-15T10:30:55.435Z,99913.80
2018-09-15T10:33:23.975Z,99918.60
2018-09-15T10:35:52.528Z,99912.28
2018-09-15T10:38:21.412Z,99900.69
2018-09-15T10:40:50.168Z,99901.39
2018-09-15T10:43:18.881Z,99901.24
2018-09-15T10:45:47.478Z,99897.32
2018-09-15T10:48:16.594Z,99898.39
2018-09-15T10:50:45.183Z,99900.23
2018-09-15T10:53:13.672Z,99902.05
2018-09-15T10:55:42.448Z,99905.61
2018-09-15T10:58:13.055Z,99899.12
2018-09-15T11:00:41.548Z,99895.30
2018-09-15T11:03:10.723Z,99885.40
2018-09-15T11:05:39.268Z,99898.01
2018-09-15T11:08:08.671Z,99894.69
2018-09-15T11:10:37.193Z,99896.02
2018-09-15T11:13:06.364Z,99891.28
2018-09-15T11:18:02.513Z,99900.12
2018-09-15T11:20:31.028Z,99893.38
2018-09-15T11:22:59.702Z,99898.73
2018-09-15T11:25:29.440Z,99892.63
2018-09-15T11:27:58.047Z,99891.70
2018-09-15T11:30:27.676Z,99902.63
2018-09-15T11:32:56.256Z,99895.95
2018-09-15T11:35:24.805Z,99894.33
2018-09-15T11:37:53.399Z,99888.57
2018-09-15T11:40:21.952Z,99886.66
2018-09-15T11:42:51.105Z,99885.03
2018-09-15T11:45:20.308Z,99886.58
2018-09-15T11:47:48.985Z,99883.98
2018-09-15T11:50:17.552Z,99875.39
2018-09-15T11:52:46.100Z,99877.11
2018-09-15T11:55:15.130Z,99882.42
2018-09-15T11:57:44.185Z,99878.37
2018-09-15T12:00:12.712Z,99878.80
2018-09-15T12:02:41.412Z,99881.23
2018-09-15T12:05:10.435Z,99877.20
2018-09-15T12:07:40.104Z,99883.69
2018-09-15T12:10:09.379Z,99880.05
2018-09-15T12:12:37.986Z,99872.68
2018-09-15T12:15:07.143Z,99874.56
2018-09-15T12:17:35.670Z,99876.72
2018-09-15T12:20:05.127Z,99868.16
2018-09-15T12:22:34.497Z,99868.91
2018-09-15T12:25:03.620Z,99858.42
2018-09-15T12:27:32.194Z,99848.61
2018-09-15T12:30:00.708Z,99852.44
2018-09-15T12:32:29.267Z,99858.19
2018-09-15T12:34:57.825Z,99855.83
2018-09-15T12:37:27.499Z,99856.25
2018-09-15T12:39:56.089Z,99847.20
2018-09-15T12:42:24.748Z,99849.14
2018-09-15T12:44:53.852Z,99850.28
2018-09-15T12:47:22.952Z,99848.86
2018-09-15T12:49:52.007Z,99848.93
2018-09-15T12:52:20.596Z,99846.03
2018-09-15T12:54:49.022Z,99840.50
2018-09-15T12:57:17.606Z,99845.47
2018-09-15T12:59:46.125Z,99839.92
2018-09-15T13:02:15.678Z,99841.87
2018-09-15T13:04:44.189Z,99838.84
2018-09-15T13:07:12.662Z,99841.11
2018-09-15T13:09:41.268Z,99838.77
2018-09-15T13:12:10.368Z,99843.90
2018-09-15T13:14:40.201Z,99829.72
2018-09-15T13:17:09.781Z,99832.41
2018-09-15T13:19:38.522Z,99831.89
2018-09-15T13:22:07.335Z,99819.02
2018-09-15T13:24:35.939Z,99819.22
2018-09-15T13:27:04.468Z,99808.77
2018-09-15T13:29:33.061Z,99814.84
2018-09-15T13:32:01.703Z,99813.27
2018-09-15T13:34:30.896Z,99810.71
2018-09-15T13:36:59.381Z,99809.48
2018-09-15T13:39:29.499Z,99807.80
2018-09-15T13:41:58.120Z,99811.66
2018-09-15T13:44:26.843Z,99808.95
2018-09-15T13:46:56.913Z,99802.11
2018-09-15T13:49:25.510Z,99797.45
2018-09-15T13:51:54.082Z,99792.91
2018-09-15T13:54:22.684Z,99805.78
2018-09-15T13:56:51.239Z,99804.33
2018-09-15T13:59:20.225Z,99807.53
2018-09-15T14:01:48.760Z,99800.16
2018-09-15T14:04:17.353Z,99796.02
2018-09-15T14:06:45.938Z,99805.20
2018-09-15T14:09:15.834Z,99802.97
2018-09-15T14:11:44.410Z,99782.17
2018-09-15T14:14:13.851Z,99816.89
2018-09-15T14:16:42.378Z,99817.30
2018-09-15T14:19:10.861Z,99818.30
2018-09-15T14:21:39.360Z,99819.25
2018-09-15T14:24:08.466Z,99818.09
2018-09-15T14:26:37.200Z,99814.27
2018-09-15T14:29:05.826Z,99810.86
2018-09-15T14:31:34.372Z,99819.88
2018-09-15T14:34:02.998Z,99809.61
2018-09-15T14:36:31.598Z,99807.74
2018-09-15T14:39:00.245Z,99815.78
2018-09-15T14:41:28.886Z,99823.02
2018-09-15T14:43:58.231Z,99820.11
2018-09-15T14:46:26.844Z,99821.05
2018-09-15T14:48:55.727Z,99816.06
2018-09-15T14:51:24.751Z,99821.62
2018-09-15T14:53:53.323Z,99825.72
2018-09-15T14:56:22.433Z,99791.26
2018-09-15T14:58:50.975Z,99821.30
2018-09-15T15:01:19.454Z,99811.11
2018-09-15T15:03:48.337Z,99805.63
2018-09-15T15:06:17.435Z,99805.38
2018-09-15T15:08:45.941Z,99805.30
2018-09-15T15:11:14.969Z,99800.53
2018-09-15T15:13:44.194Z,99806.57
2018-09-15T15:16:12.706Z,99807.02
2018-09-15T15:18:41.261Z,99804.84
2018-09-15T15:21:10.350Z,99809.69
2018-09-15T15:23:38.975Z,99813.86
2018-09-15T15:26:08.447Z,99808.20
2018-09-15T15:28:37.655Z,99800.32
2018-09-15T15:31:07.602Z,99804.69
2018-09-15T15:33:36.274Z,99796.66
2018-09-15T15:36:05.384Z,99795.54
2018-09-15T15:38:34.086Z,99800.08
2018-09-15T15:41:03.224Z,99808.59
2018-09-15T15:43:31.832Z,99800.97
2018-09-15T15:46:00.952Z,99807.88
2018-09-15T15:48:30.286Z,99810.72
2018-09-15T15:50:59.033Z,99809.02
2018-09-15T15:53:29.064Z,99813.52
2018-09-15T15:55:58.537Z,99817.33
2018-09-15T15:58:27.831Z,99815.23
2018-09-15T16:00:57.362Z,99811.33
2018-09-15T16:03:26.033Z,99810.87
2018-09-15T16:05:56.401Z,99814.97
2018-09-15T16:08:24.979Z,99813.33
2018-09-15T16:10:53.504Z,99812.47
2018-09-15T16:13:22.671Z,99813.33
2018-09-15T16:15:51.939Z,99819.46
2018-09-15T16:18:20.560Z,99816.84
2018-09-15T16:20:49.128Z,99812.34
2018-09-15T16:23:17.569Z,99816.97
2018-09-15T16:25:47.027Z,99816.72
2018-09-15T16:28:15.637Z,99816.38
2018-09-15T16:30:44.224Z,99813.19
2018-09-15T16:33:12.724Z,99810.14
2018-09-15T16:35:42.526Z,99813.39
2018-09-15T16:38:11.808Z,99803.34
2018-09-15T16:40:40.475Z,99806.75
2018-09-15T16:43:08.953Z,99805.98
2018-09-15T16:45:38.580Z,99803.98
2018-09-15T16:48:07.187Z,99804.67
2018-09-15T16:50:35.724Z,99809.77
2018-09-15T16:53:04.817Z,99805.84
2018-09-15T16:55:34.403Z,99810.75
2018-09-15T16:58:03.019Z,99808.95
2018-09-15T17:00:31.744Z,99821.17
2018-09-15T17:03:01.256Z,99825.13
2018-09-15T17:05:30.247Z,99815.93
2018-09-15T17:07:59.787Z,99821.37
2018-09-15T17:10:28.384Z,99821.97
2018-09-15T17:12:57.132Z,99823.30
2018-09-15T17:15:25.856Z,99819.59
2018-09-15T17:17:55.681Z,99834.13
2018-09-15T17:20:24.249Z,99837.47
2018-09-15T17:22:52.885Z,99829.61
2018-09-15T17:25:22.055Z,99836.88
2018-09-15T17:27:50.813Z,99834.26
2018-09-15T17:30:20.049Z,99833.23
2018-09-15T17:32:49.307Z,99834.75
2018-09-15T17:35:18.639Z,99833.76
2018-09-15T17:37:47.946Z,99843.00
2018-09-15T17:40:16.641Z,99846.82
2018-09-15T17:42:45.161Z,99852.33
2018-09-15T17:45:13.685Z,99847.87
2018-09-15T17:47:42.232Z,99853.45
2018-09-15T17:50:10.741Z,99863.91
2018-09-15T17:52:40.065Z,99864.40
2018-09-15T17:55:08.577Z,99868.66
2018-09-15T17:57:37.203Z,99867.76
2018-09-15T18:00:06.296Z,99871.67
2018-09-15T18:02:35.621Z,99866.42
2018-09-15T18:05:04.277Z,99878.93
2018-09-15T18:07:32.758Z,99883.03
2018-09-15T18:10:02.126Z,99878.08
2018-09-15T18:12:30.657Z,99879.19
2018-09-15T18:14:59.397Z,99884.65
2018-09-15T18:17:27.971Z,99894.30
2018-09-15T18:19:57.478Z,99899.86
2018-09-15T18:22:26.207Z,99889.09
2018-09-15T18:24:54.802Z,99896.03
2018-09-15T18:27:23.323Z,99899.05
2018-09-15T18:29:51.830Z,99900.39
2018-09-15T18:32:20.367Z,99899.33
2018-09-15T18:34:49.790Z,99895.45
2018-09-15T18:37:18.308Z,99895.47
2018-09-15T18:39:48.220Z,99901.91
2018-09-15T18:42:16.667Z,99907.86
2018-09-15T18:44:45.268Z,99907.33
2018-09-15T18:47:13.807Z,99909.66
2018-09-15T18:49:42.390Z,99914.47
2018-09-15T18:52:10.974Z,99913.27
2018-09-15T18:54:39.709Z,99915.30
2018-09-15T18:57:08.375Z,99918.47
2018-09-15T18:59:37.879Z,99916.97
2018-09-15T19:02:06.580Z,99915.30
2018-09-15T19:04:35.072Z,99921.20
2018-09-15T19:07:03.586Z,99924.79
2018-09-15T19:09:32.050Z,99929.93
2018-09-15T19:12:00.549Z,99928.46
2018-09-15T19:14:29.050Z,99929.28
2018-09-15T19:16:57.588Z,99933.50
2018-09-15T19:19:26.053Z,99930.27
2018-09-15T19:21:55.329Z,99933.97
2018-09-15T19:24:23.779Z,99936.20
2018-09-15T19:26:52.348Z,99931.55
2018-09-15T19:29:20.788Z,99928.94
2018-09-15T19:31:49.971Z,99927.36
2018-09-15T19:34:18.443Z,99929.45
2018-09-15T19:36:46.886Z,99929.52
2018-09-15T19:39:15.530Z,99937.63
2018-09-15T19:41:43.980Z,99936.56
2018-09-15T19:44:13.053Z,99933.63
2018-09-15T19:46:41.516Z,99938.33
2018-09-15T19:49:10.600Z,99941.05
2018-09-15T19:51:39.323Z,99938.50
2018-09-15T19:54:07.854Z,99938.59
2018-09-15T19:56:36.375Z,99939.35
2018-09-15T19:59:04.916Z,99936.30
2018-09-15T20:01:33.975Z,99942.36
2018-09-15T20:04:02.512Z,99938.48
2018-09-15T20:06:31.150Z,99949.09
2018-09-15T20:08:59.681Z,99955.61
2018-09-15T20:11:28.145Z,99954.81
2018-09-15T20:13:58.355Z,99952.88
2018-09-15T20:16:25.673Z,99953.77
2018-09-15T20:18:53.002Z,99953.39
2018-09-15T20:21:20.283Z,99958.79
2018-09-15T20:23:49.496Z,99961.45
2018-09-15T20:26:18.090Z,99962.95
2018-09-15T20:28:46.659Z,99964.92
2018-09-15T20:31:15.198Z,99960.19
2018-09-15T20:33:43.896Z,99964.66
2018-09-15T20:36:12.417Z,99958.88
2018-09-15T20:38:41.093Z,99965.56
2018-09-15T20:41:09.657Z,99963.45
2018-09-15T20:43:38.269Z,99961.81
2018-09-15T20:46:06.809Z,99961.86
2018-09-15T20:48:35.404Z,99962.53
2018-09-15T20:51:03.891Z,99966.19
2018-09-15T20:53:33.162Z,99988.50
2018-09-15T20:56:01.617Z,99975.23
2018-09-15T20:58:30.121Z,99982.58
2018-09-15T21:00:58.686Z,99988.77
2018-09-15T21:03:27.188Z,99983.91
2018-09-15T21:05:56.708Z,99979.89
2018-09-15T21:08:25.785Z,99984.13
2018-09-15T21:10:54.248Z,99980.44
2018-09-15T21:13:22.874Z,99984.25
2018-09-15T21:15:51.450Z,99972.95
2018-09-15T21:18:19.924Z,99981.60
2018-09-15T21:20:48.527Z,99975.91
2018-09-15T21:23:17.318Z,99977.95
2018-09-15T21:25:45.740Z,99971.00
2018-09-15T21:28:14.719Z,99973.19
2018-09-15T21:30:43.633Z,99968.00
2018-09-15T21:33:12.126Z,99968.45
2018-09-15T21:35:40.590Z,99976.94
2018-09-15T21:38:09.061Z,99978.25
2018-09-15T21:40:38.629Z,99972.22
2018-09-15T21:43:07.132Z,99974.09
2018-09-15T21:45:36.019Z,99967.69
2018-09-15T21:48:04.503Z,99973.67
2018-09-15T21:50:32.965Z,99974.41
2018-09-15T21:53:01.487Z,99969.09
2018-09-15T21:55:31.186Z,99978.91
2018-09-15T21:58:00.335Z,99970.84
2018-09-15T22:00:28.868Z,99970.02
2018-09-15T22:02:57.420Z,99966.84
2018-09-15T22:05:25.875Z,99971.63
2018-09-15T22:07:54.859Z,99961.81
2018-09-15T22:10:24.695Z,99972.04
2018-09-15T22:12:53.356Z,99972.49
2018-09-15T22:15:28.654Z,99980.20
2018-09-15T22:17:58.780Z,99974.14
2018-09-15T22:20:27.825Z,99979.66
2018-09-15T22:22:56.847Z,99978.13
2018-09-15T22:25:25.408Z,99977.65
2018-09-15T22:27:54.089Z,99976.17
2018-09-15T22:30:22.759Z,99979.67
2018-09-15T22:32:51.879Z,99976.05
2018-09-15T22:35:20.384Z,99976.98
2018-09-15T22:37:48.979Z,99972.63
2018-09-15T22:40:20.404Z,99970.09
2018-09-15T22:42:48.961Z,99971.92
2018-09-15T22:45:18.493Z,99973.16
2018-09-15T22:47:46.952Z,99972.68
2018-09-15T22:50:16.218Z,99972.89
2018-09-15T22:52:44.880Z,99976.03
2018-09-15T22:55:13.451Z,99977.36
2018-09-15T22:57:42.144Z,99976.67
2018-09-15T23:00:10.692Z,99972.22
2018-09-15T23:02:39.718Z,99975.19
2018-09-15T23:05:08.453Z,99975.81
2018-09-15T23:07:37.024Z,99970.73
2018-09-15T23:10:07.720Z,99966.39
2018-09-15T23:12:36.397Z,99963.49
2018-09-15T23:15:05.852Z,99969.45
2018-09-15T23:17:34.484Z,99968.70
2018-09-15T23:20:02.976Z,99971.63
2018-09-15T23:22:31.386Z,99968.46
2018-09-15T23:25:00.457Z,99967.02
2018-09-15T23:27:28.959Z,99961.93
2018-09-15T23:29:58.909Z,99963.16
2018-09-15T23:32:27.419Z,99964.00
2018-09-15T23:34:56.052Z,99972.80
2018-09-15T23:37:24.515Z,99963.65
2018-09-15T23:39:53.068Z,99962.32
2018-09-15T23:42:21.535Z,99954.70
2018-09-15T23:44:50.044Z,99952.87
2018-09-15T23:47:18.619Z,99946.86
2018-09-15T23:49:47.188Z,99955.67
2018-09-15T23:52:16.309Z,99956.51
2018-09-15T23:54:44.863Z,99957.20
2018-09-15T23:57:13.328Z,99954.43
2018-09-15T23:59:41.833Z,99957.58
